Winnipeg / James Armstrong Richardson International Airport

CYWG

23 maggio 2022

Tempo Codice Tempo metereologico Temp. Vista Nuvole Vento METAR/SPECI
02:00
V
9 °C 24 km - 180°   180° 9 kt METAR CYWG 230700Z 18009KT 15SM SKC 09/02 A3018 RMK SLP226
01:00
V
7 °C 24 km - 170°   170° 8 kt METAR CYWG 230600Z 17008KT 15SM SKC 07/01 A3018 RMK SLP228
00:00
V
8 °C 24 km - 160°   160° 7 kt METAR CYWG 230500Z 16007KT 15SM SKC 08/M00 A3018 RMK SLP230

22 maggio 2022

Tempo Codice Tempo metereologico Temp. Vista Nuvole Vento METAR/SPECI
23:00
V
8 °C 24 km - 150°   150° 7 kt METAR CYWG 230400Z 15007KT 15SM SKC 08/M00 A3019 RMK SLP232
22:00
V
9 °C 24 km - 160°   160° 7 kt METAR CYWG 230300Z 16007KT 15SM SKC 09/00 A3018 RMK SLP230
21:00
V
12 °C 24 km - 160°   160° 8 kt METAR CYWG 230200Z 16008KT 15SM SKC 12/00 A3018 RMK SLP230
20:00
V
15 °C 24 km - 170°   170° 9 kt METAR CYWG 230100Z 17009KT 15SM FEW075 15/00 A3018 RMK AC1 AC TR SLP230
19:00
V
15 °C 24 km - 190°   190° 3 kt METAR CYWG 230000Z 19003KT 15SM FEW075 15/M05 A3019 RMK CU1 SLP232
18:00
V
16 °C 24 km - Var   Var 6 kt METAR CYWG 222300Z VRB06KT 15SM FEW079 16/M04 A3020 RMK CU2 SLP237 DENSITY ALT 800FT
17:00
V
15 °C 24 km - Var   Var 2 kt METAR CYWG 222200Z VRB02KT 15SM SCT079 15/M02 A3021 RMK CU4 SLP240
16:00
V
15 °C 24 km 7.500 ft 230°   230° 6 kt METAR CYWG 222100Z 23006KT 170V250 15SM BKN075 15/M01 A3021 RMK CU5 SLP241
15:00
V
15 °C 24 km - 250°   250° 4 kt METAR CYWG 222000Z 25004KT 150V290 15SM SCT075 15/M02 A3022 RMK CU4 SLP243
14:00
V
14 °C 24 km - Var   Var 7 kt METAR CYWG 221900Z VRB07KT 15SM SCT073 14/M02 A3022 RMK CU4 SLP244
13:00
V
13 °C 24 km - Var   000° 0 kt METAR CYWG 221800Z 00000KT 15SM SCT070 13/M03 A3023 RMK CU4 SLP246
12:00
V
13 °C 24 km - 240°   240° 3 kt METAR CYWG 221700Z 24003KT 210V330 15SM FEW066 13/M02 A3023 RMK CU2 SLP246
11:00
V
12 °C 24 km - 260°   260° 3 kt METAR CYWG 221600Z 26003KT 200V350 15SM FEW040 FEW250 12/M03 A3022 RMK CF1CI1 CI TR SLP243
10:00
V
12 °C 24 km - 290°   290° 5 kt METAR CYWG 221500Z 29005KT 270V340 15SM FEW040 FEW250 12/M00 A3022 RMK CF1CI1 CF TR CI TR SLP244
09:00
V
10 °C 24 km - 290°   290° 5 kt METAR CYWG 221400Z 29005KT 270V340 15SM FEW250 10/02 A3021 RMK CI1 CI TR SLP241
08:00
V
7 °C 24 km - 290°   290° 6 kt METAR CYWG 221300Z 29006KT 15SM SKC 07/02 A3021 RMK SLP240
07:00
V
4 °C 24 km - 280°   280° 4 kt METAR CYWG 221200Z 28004KT 15SM FEW080 04/01 A3020 RMK AC1 SLP238
06:00
V
1 °C 24 km - 270°   270° 6 kt METAR CYWG 221100Z 27006KT 15SM FEW080 01/M01 A3019 RMK AC1 SLP235
05:00
V
1 °C 24 km - 270°   270° 6 kt METAR CYWG 221000Z 27006KT 15SM FEW080 01/M01 A3018 RMK AC2 SLP232
04:00
V
2 °C 24 km 7.600 ft 260°   260° 7 kt METAR CYWG 220900Z 26007KT 15SM BKN076 02/M01 A3018 RMK AC6 SLP230
03:00
V
2 °C 24 km 7.800 ft 260°   260° 7 kt METAR CYWG 220800Z 26007KT 15SM BKN078 02/M01 A3018 RMK AC6 SLP230
02:00
V
3 °C 24 km - 270°   270° 5 kt METAR CYWG 220700Z 27005KT 15SM FEW080 03/M00 A3017 RMK AC2 SLP229
01:00
V
2 °C 24 km - 270°   270° 5 kt METAR CYWG 220600Z 27005KT 15SM SCT079 02/M01 A3018 RMK AC3 SLP231
00:17
V
2 °C 24 km 7.900 ft 270°   270° 6 kt METAR CYWG 220517Z 27006KT 15SM BKN079 02/M01 A3017 RMK AC5 SLP230
00:00
V
4 °C 24 km 7.900 ft 260°   260° 6 kt METAR CYWG 220500Z 26006KT 15SM BKN079 04/M01 A3017 RMK AC6 SLP229

21 maggio 2022

Tempo Codice Tempo metereologico Temp. Vista Nuvole Vento METAR/SPECI
23:00
V
6 °C 24 km 7.800 ft 270°   270° 5 kt METAR CYWG 220400Z 27005KT 15SM BKN078 06/M00 A3017 RMK AC5 SLP227
22:00
V
6 °C 24 km 7.900 ft 270°   270° 6 kt METAR CYWG 220300Z 27006KT 15SM BKN079 06/01 A3016 RMK AC6 SLP224
21:00
V
8 °C 24 km 8.100 ft 310°   310° 6 kt METAR CYWG 220200Z 31006KT 15SM BKN081 08/M01 A3014 RMK AC5 SLP219
20:00
V
9 °C 24 km 8.500 ft 320°   320° 10 kt METAR CYWG 220100Z 32010KT 15SM FEW048 BKN085 BKN250 09/M01 A3013 RMK CU1AC4CI1 SLP215
19:00
V
10 °C 24 km 4.400 ft 330°   330° 12 kt METAR CYWG 220000Z CCA 33012KT 15SM BKN044 BKN083 10/M01 A3012 RMK SC5AC1 VIRGA N SLP212
18:00
V
9 °C 24 km 8.000 ft 310°   310° 8 kt METAR CYWG 212300Z 31008KT 15SM SCT044 BKN080 09/M02 A3013 RMK CU3AC3 VIRGA NNW SLP215
17:00
V
9 °C 24 km 4.200 ft 320°   320° 12 kt METAR CYWG 212200Z 32012KT 280V360 15SM BKN042 BKN069 09/M00 A3013 RMK CU6AC1 SLP215
16:00
V
9 °C 24 km 3.000 ft 320°   320° 8 kt METAR CYWG 212100Z 32008KT 15SM BKN030 BKN074 09/M00 A3014 RMK CU6AC1 SLP217
15:00
V
7 °C 24 km 3.900 ft 020°   020° 4 kt METAR CYWG 212000Z 02004KT 350V070 15SM BKN039 BKN072 07/M02 A3014 RMK SC6AC1 SLP217
14:00
V
7 °C 24 km 5.700 ft Var   Var 6 kt METAR CYWG 211900Z VRB06KT 15SM SCT035 OVC057 07/M01 A3014 RMK SC4SC4 SLP217
13:00
V
7 °C 24 km 4.200 ft 350°   350° 10 kt METAR CYWG 211800Z 35010KT 15SM BKN042 OVC050 07/M01 A3012 RMK SC7SC1 SLP212
12:00
V
5 °C 24 km 4.300 ft 340°   340° 9 kt METAR CYWG 211700Z 34009KT 15SM OVC043 05/M01 A3011 RMK SC8 SLP208
11:00
V
6 °C 24 km 3.900 ft 360°   360° 11 kt METAR CYWG 211600Z 36011KT 320V040 15SM BKN039 BKN063 06/M02 A3009 RMK CU7SC1 SC TR SLP203
10:00
M
4 °C 24 km 2.500 ft 360°   360° 10 17 kt METAR CYWG 211500Z 36010G17KT 15SM BKN025 BKN087 04/M00 A3009 RMK CU6AC1 AC TR SLP201
09:00
M
3 °C 24 km 1.000 ft 330°   330° 5 kt METAR CYWG 211400Z 33005KT 15SM BKN010 BKN021 03/01 A3008 RMK SC7CU1 CU TR SLP200
08:20
M
3 °C 24 km 1.300 ft 340°   340° 9 kt METAR CYWG 211320Z 34009KT 290V350 15SM -SHRA BKN013 OVC031TCU 03/M00 A3008 RMK SC5TCU3 SLP197
08:00
V
3 °C 24 km 3.500 ft 300°   300° 6 kt METAR CYWG 211300Z 30006KT 15SM BKN035 OVC090 03/M00 A3007 RMK SC6AC2 SLP195
07:00
V
2 °C 24 km 8.800 ft 310°   310° 6 kt METAR CYWG 211200Z 31006KT 15SM FEW050 OVC088 02/M01 A3005 RMK SC2AC6 SLP188
06:00
V
2 °C 24 km 9.000 ft 320°   320° 6 kt METAR CYWG 211100Z 32006KT 15SM SCT038 OVC090 02/M01 A3002 RMK SC3AC5 SLP179
05:00
V
2 °C 24 km 4.300 ft 320°   320° 8 kt METAR CYWG 211000Z 32008KT 15SM OVC043 02/M02 A3000 RMK SC8 SLP173
04:00
V
2 °C 24 km 4.600 ft 310°   310° 6 kt METAR CYWG 210900Z 31006KT 15SM OVC046 02/M02 A3000 RMK SC8 SLP170
03:00
V
2 °C 24 km 4.800 ft 300°   300° 6 kt METAR CYWG 210800Z 30006KT 15SM OVC048 02/M02 A2997 RMK SC8 SLP162
02:00
V
2 °C 24 km 4.500 ft 320°   320° 8 kt METAR CYWG 210700Z 32008KT 15SM OVC045 02/M03 A2996 RMK SC8 SLP159
Dati più vecchi

Scarica la nostra applicazione

Facile accesso a tutte le previsioni dell'aviazione sul tuo cellulare e tablet.
Con molte caratteristiche non disponibili sul sito web, come il supporto offline e una lista personale di aeroporti.

Noi e le terze parti seguiamo il tuo comportamento in internet sul nostro sito web con i cookie. Se continui, riteniamo che tu sia d'accordo con la nostra politica sui cookie. Per saperne di più